CheckWX is a tool to help pilots better visualize weather data.  It is not intended as a substitute for an official pre-flight weather briefing.

03:02:42 UTC

FMCH METAR
Prince Said Ibrahim International Airport
Moroni, Comoros
Current

9 hours ago

FMCH 231800Z 10006KT 9999 SCT020 26/25 Q1012 NOSIG
Observed
Mar-23 @ 18:00 UTC
Wind
  • 100° at 6 KTS
Visibility
10,000+ meters
Flight Rules
VFR
Cloud Levels
  • Scattered at 2,000' AGL
Temperature
26°C / 79°F
Dewpoint
25°C / 77°F
Humidity
94%
Altimeter
29.88" Hg
Pressure
1011.92 hPa
Previous

10 hours ago

FMCH 231700Z 10003KT 9999 SCT020 27/25 Q1011 NOSIG
Observed
Mar-23 @ 17:00 UTC
Wind
  • 100° at 3 KTS
Visibility
10,000+ meters
Flight Rules
VFR
Cloud Levels
  • Scattered at 2,000' AGL
Temperature
27°C / 81°F
Dewpoint
25°C / 77°F
Humidity
89%
Altimeter
29.85" Hg
Pressure
1010.92 hPa
Previous

11 hours ago

FMCH 231600Z 34002KT 9999 SCT020 27/25 Q1011 NOSIG
Observed
Mar-23 @ 16:00 UTC
Wind
  • 340° at 2 KTS
Visibility
10,000+ meters
Flight Rules
VFR
Cloud Levels
  • Scattered at 2,000' AGL
Temperature
27°C / 81°F
Dewpoint
25°C / 77°F
Humidity
89%
Altimeter
29.85" Hg
Pressure
1010.92 hPa